createdAt,value
2023-03-25T00:01:41.989Z,30.28
2023-03-25T00:04:10.316Z,29.98
2023-03-25T00:06:39.409Z,29.88
2023-03-25T00:09:08.705Z,29.98
2023-03-25T00:11:37.901Z,30.07
2023-03-25T00:14:06.593Z,30.48
2023-03-25T00:16:41.796Z,30.48
2023-03-25T00:19:10.323Z,30.53
2023-03-25T00:21:40.041Z,30.59
2023-03-25T00:24:08.306Z,30.49
2023-03-25T00:26:42.672Z,30.45
2023-03-25T00:29:10.804Z,30.62
2023-03-25T00:31:40.640Z,30.55
2023-03-25T00:34:09.204Z,30.75
2023-03-25T00:36:38.807Z,30.68
2023-03-25T00:39:08.572Z,30.73
2023-03-25T00:41:37.403Z,30.66
2023-03-25T00:44:06.212Z,30.45
2023-03-25T00:46:34.790Z,30.11
2023-03-25T00:49:04.712Z,29.80
2023-03-25T00:51:36.463Z,29.70
2023-03-25T00:54:23.852Z,29.55
2023-03-25T00:56:53.650Z,29.44
2023-03-25T00:59:22.220Z,29.43
2023-03-25T01:01:53.408Z,29.46
2023-03-25T01:04:22.325Z,29.41
2023-03-25T01:06:53.774Z,29.64
2023-03-25T01:09:22.464Z,29.77
2023-03-25T01:11:50.944Z,29.83
2023-03-25T01:14:21.137Z,29.80
2023-03-25T01:16:50.489Z,30.00
2023-03-25T01:19:18.944Z,30.33
2023-03-25T01:21:49.582Z,30.40
2023-03-25T01:24:18.168Z,30.55
2023-03-25T01:26:46.291Z,30.53
2023-03-25T01:29:17.376Z,30.54
2023-03-25T01:31:45.649Z,30.51
2023-03-25T01:34:14.452Z,30.44
2023-03-25T01:36:46.918Z,30.32
2023-03-25T01:39:19.212Z,30.39
2023-03-25T01:41:50.632Z,31.00
2023-03-25T01:44:19.574Z,31.15
2023-03-25T01:46:49.658Z,31.10
2023-03-25T01:49:44.646Z,31.08
2023-03-25T01:52:16.516Z,31.21
2023-03-25T01:54:45.017Z,31.27
2023-03-25T01:57:14.009Z,31.22
2023-03-25T01:59:42.568Z,31.03
2023-03-25T02:02:17.809Z,30.72
2023-03-25T02:04:59.173Z,30.32
2023-03-25T02:07:31.209Z,30.17
2023-03-25T02:10:02.361Z,30.19
2023-03-25T02:12:31.309Z,30.08
2023-03-25T02:15:03.309Z,29.72
2023-03-25T02:18:00.961Z,29.45
2023-03-25T02:20:45.836Z,29.26
2023-03-25T02:23:28.614Z,29.13
2023-03-25T02:26:33.173Z,28.98
2023-03-25T02:29:15.345Z,28.67
2023-03-25T02:32:05.849Z,28.65
2023-03-25T02:35:00.217Z,28.60
2023-03-25T02:37:53.605Z,28.59
2023-03-25T02:40:48.953Z,28.68
2023-03-25T02:43:30.690Z,28.70
2023-03-25T02:46:01.553Z,28.75
2023-03-25T02:48:39.178Z,28.86
2023-03-25T02:51:17.806Z,28.83
2023-03-25T02:53:46.795Z,28.85
2023-03-25T02:56:17.066Z,29.27
2023-03-25T02:58:45.605Z,29.59
2023-03-25T03:01:15.259Z,30.18
2023-03-25T03:03:44.947Z,30.66
2023-03-25T03:06:16.727Z,31.14
2023-03-25T03:08:51.842Z,31.71
2023-03-25T03:11:24.912Z,32.12
2023-03-25T03:14:26.005Z,32.43
2023-03-25T03:17:08.940Z,32.44
2023-03-25T03:19:39.210Z,32.37
2023-03-25T03:22:39.754Z,32.18
2023-03-25T03:25:11.308Z,32.14
2023-03-25T03:27:53.172Z,32.01
2023-03-25T03:30:39.396Z,32.49
2023-03-25T03:33:22.028Z,32.51
2023-03-25T03:35:57.617Z,32.47
2023-03-25T03:38:27.370Z,32.56
2023-03-25T03:40:57.393Z,32.67
2023-03-25T03:46:10.799Z,34.75
2023-03-25T03:48:44.978Z,33.09
2023-03-25T03:51:19.703Z,32.78
2023-03-25T03:54:13.253Z,32.63
2023-03-25T03:56:46.787Z,32.55
2023-03-25T03:59:53.847Z,32.34
2023-03-25T04:02:32.718Z,32.27
2023-03-25T04:05:01.020Z,32.06
2023-03-25T04:07:40.540Z,32.14
2023-03-25T04:10:16.484Z,31.88
2023-03-25T04:12:51.395Z,31.81
2023-03-25T04:15:23.160Z,31.62
2023-03-25T04:17:53.292Z,31.78
2023-03-25T04:20:24.126Z,31.85
2023-03-25T04:22:53.149Z,31.95
2023-03-25T04:25:21.853Z,32.66
2023-03-25T04:27:50.269Z,32.82
2023-03-25T04:30:19.388Z,32.88
2023-03-25T04:32:48.093Z,32.75
2023-03-25T04:35:19.497Z,32.75
2023-03-25T04:37:53.920Z,33.22
2023-03-25T04:40:22.098Z,33.48
2023-03-25T04:42:51.335Z,33.52
2023-03-25T04:45:19.506Z,33.41
2023-03-25T04:47:49.785Z,33.54
2023-03-25T04:50:28.686Z,33.47
2023-03-25T04:53:03.425Z,32.87
2023-03-25T04:55:34.833Z,32.78
2023-03-25T04:58:03.284Z,32.82
2023-03-25T05:00:33.934Z,32.58
2023-03-25T05:03:02.941Z,32.76
2023-03-25T05:05:31.710Z,33.04
2023-03-25T05:08:01.772Z,32.86
2023-03-25T05:10:30.736Z,33.07
2023-03-25T05:13:03.918Z,32.89
2023-03-25T05:15:39.304Z,32.75
2023-03-25T05:18:14.911Z,32.47
2023-03-25T05:20:51.175Z,32.33
2023-03-25T05:23:23.758Z,32.17
2023-03-25T05:25:52.221Z,32.14
2023-03-25T05:28:20.948Z,32.01
2023-03-25T05:30:51.893Z,31.94
2023-03-25T05:33:22.374Z,31.74
2023-03-25T05:35:50.910Z,31.89
2023-03-25T05:38:19.457Z,31.83
2023-03-25T05:40:48.791Z,32.05
2023-03-25T05:43:23.294Z,32.04
2023-03-25T05:45:53.255Z,31.55
2023-03-25T05:48:22.715Z,30.92
2023-03-25T05:50:50.990Z,30.80
2023-03-25T05:53:20.912Z,30.56
2023-03-25T05:55:54.241Z,30.48
2023-03-25T05:58:25.274Z,30.42
2023-03-25T06:00:55.360Z,30.34
2023-03-25T06:03:26.413Z,30.29
2023-03-25T06:05:55.502Z,30.24
2023-03-25T06:08:26.535Z,30.19
2023-03-25T06:11:01.067Z,30.20
2023-03-25T06:13:34.177Z,29.99
2023-03-25T06:16:03.626Z,30.05
2023-03-25T06:18:33.175Z,29.96
2023-03-25T06:21:03.912Z,29.91
2023-03-25T06:23:36.801Z,29.92
2023-03-25T06:26:05.529Z,29.97
2023-03-25T06:28:35.015Z,29.79
2023-03-25T06:31:26.865Z,29.67
2023-03-25T06:33:56.392Z,29.74
2023-03-25T06:36:26.228Z,29.62
2023-03-25T06:38:54.937Z,29.63
2023-03-25T06:41:36.103Z,29.75
2023-03-25T06:44:16.992Z,29.75
2023-03-25T06:47:12.296Z,29.99
2023-03-25T06:49:50.934Z,29.79
2023-03-25T06:52:19.400Z,29.67
2023-03-25T06:54:49.228Z,29.70
2023-03-25T06:57:17.794Z,29.91
2023-03-25T06:59:47.659Z,29.89
2023-03-25T07:02:16.226Z,30.01
2023-03-25T07:04:44.541Z,29.81
2023-03-25T07:07:13.230Z,29.58
2023-03-25T07:09:41.551Z,29.48
2023-03-25T07:12:10.228Z,29.56
2023-03-25T07:14:38.783Z,29.83
2023-03-25T07:17:07.204Z,29.44
2023-03-25T07:19:37.180Z,29.77
2023-03-25T07:22:08.665Z,29.78
2023-03-25T07:24:39.605Z,29.85
2023-03-25T07:27:07.965Z,29.88
2023-03-25T07:29:37.198Z,29.69
2023-03-25T07:32:06.418Z,29.93
2023-03-25T07:34:34.904Z,29.58
2023-03-25T07:37:04.503Z,29.90
2023-03-25T07:39:32.583Z,29.93
2023-03-25T07:42:02.570Z,29.77
2023-03-25T07:44:51.023Z,29.44
2023-03-25T07:47:21.960Z,29.43
2023-03-25T07:49:50.284Z,29.81
2023-03-25T07:52:18.824Z,29.51
2023-03-25T07:54:47.062Z,29.56
2023-03-25T07:57:15.687Z,29.57
2023-03-25T07:59:47.960Z,29.13
2023-03-25T08:02:16.355Z,29.17
2023-03-25T08:04:44.924Z,29.19
2023-03-25T08:07:13.411Z,29.17
2023-03-25T08:09:43.026Z,29.02
2023-03-25T08:12:11.249Z,28.92
2023-03-25T08:14:43.280Z,28.74
2023-03-25T08:17:11.639Z,28.82
2023-03-25T08:19:42.440Z,28.97
2023-03-25T08:22:11.366Z,29.05
2023-03-25T08:24:39.847Z,28.74
2023-03-25T08:27:14.087Z,28.47
2023-03-25T08:29:47.180Z,28.50
2023-03-25T08:32:15.577Z,28.37
2023-03-25T08:34:44.001Z,28.40
2023-03-25T08:37:14.344Z,28.55
2023-03-25T08:39:45.512Z,28.54
2023-03-25T08:42:14.775Z,28.35
2023-03-25T08:44:43.168Z,28.16
2023-03-25T08:47:11.398Z,28.18
2023-03-25T08:49:41.782Z,28.07
2023-03-25T08:52:11.432Z,28.13
2023-03-25T08:54:40.794Z,28.19
2023-03-25T08:57:09.635Z,28.42
2023-03-25T08:59:38.287Z,28.27
2023-03-25T09:02:06.683Z,29.45
2023-03-25T09:04:41.175Z,33.11
2023-03-25T09:07:12.597Z,32.54
2023-03-25T09:09:41.560Z,31.39
2023-03-25T09:12:12.761Z,30.30
2023-03-25T09:14:41.789Z,28.94
2023-03-25T09:17:11.098Z,28.32
2023-03-25T09:19:41.294Z,27.65
2023-03-25T09:22:09.859Z,26.75
2023-03-25T09:24:39.180Z,26.93
2023-03-25T09:27:07.888Z,26.91
2023-03-25T09:29:36.691Z,26.29
2023-03-25T09:32:18.860Z,26.45
2023-03-25T09:34:48.720Z,26.32
2023-03-25T09:37:17.967Z,25.37
2023-03-25T09:39:47.473Z,25.27
2023-03-25T09:42:31.246Z,25.17
2023-03-25T09:45:29.756Z,25.46
2023-03-25T09:48:03.548Z,25.50
2023-03-25T09:50:33.119Z,25.71
2023-03-25T09:53:11.204Z,25.92
2023-03-25T09:55:41.888Z,26.05
2023-03-25T09:58:28.861Z,26.12
2023-03-25T10:01:01.393Z,26.47
2023-03-25T10:03:58.958Z,26.45
2023-03-25T10:06:27.592Z,26.73
2023-03-25T10:09:02.040Z,26.97
2023-03-25T10:11:37.481Z,26.98
2023-03-25T10:14:40.488Z,27.22
2023-03-25T10:17:36.287Z,27.58
2023-03-25T10:20:40.992Z,27.82
2023-03-25T10:23:18.324Z,27.72
2023-03-25T10:25:48.642Z,27.77
2023-03-25T10:28:20.859Z,27.82
2023-03-25T10:30:51.247Z,27.94
2023-03-25T10:33:27.808Z,27.92
2023-03-25T10:35:59.845Z,27.92
2023-03-25T10:38:30.366Z,27.99
2023-03-25T10:41:10.979Z,28.05
2023-03-25T10:43:41.788Z,27.96
2023-03-25T10:47:01.216Z,28.15
2023-03-25T10:49:30.919Z,28.16
2023-03-25T10:51:59.733Z,28.22
2023-03-25T10:54:32.000Z,28.08
2023-03-25T10:57:04.067Z,28.47
2023-03-25T10:59:41.543Z,28.62
2023-03-25T11:02:25.473Z,28.59
2023-03-25T11:05:03.170Z,28.43
2023-03-25T11:07:34.931Z,28.64
2023-03-25T11:10:11.882Z,28.73
2023-03-25T11:12:48.541Z,28.45
2023-03-25T11:15:22.725Z,28.14
2023-03-25T11:18:19.896Z,27.94
2023-03-25T11:20:50.262Z,27.86
2023-03-25T11:23:37.614Z,27.81
2023-03-25T11:26:08.851Z,27.47
2023-03-25T11:28:40.373Z,27.87
2023-03-25T11:31:14.649Z,27.71
2023-03-25T11:33:45.399Z,28.32
2023-03-25T11:36:17.913Z,28.00
2023-03-25T11:38:47.632Z,27.59
2023-03-25T11:41:15.830Z,27.68
2023-03-25T11:43:48.207Z,27.80
2023-03-25T11:46:18.381Z,27.96
2023-03-25T11:48:47.008Z,28.01
2023-03-25T11:51:19.712Z,27.77
2023-03-25T11:53:57.809Z,27.72
2023-03-25T11:56:31.611Z,27.72
2023-03-25T11:59:01.472Z,27.68
2023-03-25T12:01:51.153Z,27.58
2023-03-25T12:04:21.321Z,27.61
2023-03-25T12:07:09.491Z,27.71
2023-03-25T12:17:40.543Z,28.99
2023-03-25T12:20:51.670Z,29.25
2023-03-25T12:23:42.197Z,30.03
2023-03-25T12:26:11.557Z,30.15
2023-03-25T12:28:39.618Z,30.38
2023-03-25T12:31:20.781Z,30.69
2023-03-25T12:34:08.202Z,30.62
2023-03-25T12:36:44.428Z,30.94
2023-03-25T12:39:43.177Z,30.67
2023-03-25T12:42:22.050Z,30.54
2023-03-25T12:45:18.885Z,30.32
2023-03-25T12:47:49.999Z,30.45
2023-03-25T12:50:26.919Z,30.58
2023-03-25T12:53:20.505Z,30.54
2023-03-25T12:56:23.567Z,30.48
2023-03-25T12:59:12.344Z,31.80
2023-03-25T13:02:15.140Z,32.68
2023-03-25T13:05:03.061Z,33.00
2023-03-25T13:07:41.250Z,32.78
2023-03-25T13:10:21.366Z,32.80
2023-03-25T13:12:54.650Z,33.03
2023-03-25T13:15:28.666Z,33.21
2023-03-25T13:18:14.203Z,33.25
2023-03-25T13:20:46.719Z,33.35
2023-03-25T13:23:18.032Z,33.40
2023-03-25T13:26:06.641Z,33.43
2023-03-25T13:29:00.236Z,33.40
2023-03-25T13:31:42.910Z,33.91
2023-03-25T13:34:11.349Z,33.77
2023-03-25T13:36:44.317Z,33.26
2023-03-25T13:39:25.505Z,33.22
2023-03-25T13:42:07.006Z,33.06
2023-03-25T13:44:39.766Z,32.45
2023-03-25T13:47:29.541Z,32.01
2023-03-25T13:50:00.461Z,31.82
2023-03-25T13:52:32.070Z,31.58
2023-03-25T13:55:04.645Z,31.48
2023-03-25T13:57:51.913Z,31.00
2023-03-25T14:00:45.031Z,30.60
2023-03-25T14:03:26.845Z,30.77
2023-03-25T14:06:50.143Z,30.55
2023-03-25T14:09:48.523Z,30.50
2023-03-25T14:12:26.484Z,29.99
2023-03-25T14:15:05.412Z,30.13
2023-03-25T14:17:35.857Z,30.18
2023-03-25T14:20:05.918Z,30.43
2023-03-25T14:22:43.810Z,30.54
2023-03-25T14:25:21.849Z,30.49
2023-03-25T14:27:50.694Z,30.61
2023-03-25T14:30:22.360Z,30.61
2023-03-25T14:32:52.135Z,30.69
2023-03-25T14:35:33.364Z,30.70
2023-03-25T14:38:08.465Z,30.84
2023-03-25T14:41:01.264Z,30.78
2023-03-25T14:43:48.326Z,30.68
2023-03-25T14:46:20.724Z,30.73
2023-03-25T14:48:52.622Z,30.66
2023-03-25T14:51:23.097Z,30.56
2023-03-25T14:54:02.761Z,30.83
2023-03-25T14:56:39.476Z,30.92
2023-03-25T14:59:14.455Z,31.26
2023-03-25T15:01:43.782Z,31.55
2023-03-25T15:04:18.225Z,31.93
2023-03-25T15:06:52.185Z,32.18
2023-03-25T15:09:20.866Z,32.29
2023-03-25T15:12:00.403Z,32.43
2023-03-25T15:14:36.044Z,32.63
2023-03-25T15:17:06.651Z,32.59
2023-03-25T15:20:10.812Z,32.49
2023-03-25T15:22:40.723Z,32.56
2023-03-25T15:25:17.013Z,32.65
2023-03-25T15:28:04.641Z,32.70
2023-03-25T15:31:16.469Z,32.77
2023-03-25T15:34:05.192Z,32.86
2023-03-25T15:36:48.824Z,32.97
2023-03-25T15:39:38.544Z,33.08
2023-03-25T15:42:13.200Z,33.26
2023-03-25T15:45:01.470Z,33.62
2023-03-25T15:47:37.894Z,33.78
2023-03-25T15:50:12.073Z,33.99
2023-03-25T15:53:09.015Z,34.11
2023-03-25T15:55:40.665Z,34.29
2023-03-25T15:58:14.692Z,34.57
2023-03-25T16:00:47.305Z,34.62
2023-03-25T16:04:18.760Z,36.58
2023-03-25T16:06:48.981Z,34.93
2023-03-25T16:09:28.824Z,34.77
2023-03-25T16:12:01.229Z,34.96
2023-03-25T16:14:31.403Z,35.12
2023-03-25T16:17:06.789Z,35.16
2023-03-25T16:19:50.711Z,35.11
2023-03-25T16:22:33.073Z,35.37
2023-03-25T16:25:03.948Z,35.50
2023-03-25T16:27:37.126Z,35.74
2023-03-25T16:30:20.351Z,35.90
2023-03-25T16:32:48.930Z,36.26
2023-03-25T16:35:24.840Z,35.76
2023-03-25T16:37:57.339Z,35.46
2023-03-25T16:40:30.845Z,35.50
2023-03-25T16:43:06.054Z,35.47
2023-03-25T16:53:20.410Z,35.33
2023-03-25T16:55:50.984Z,35.35
2023-03-25T16:58:22.279Z,35.50
2023-03-25T17:00:53.900Z,35.75
2023-03-25T17:03:47.346Z,35.83
2023-03-25T17:06:28.632Z,35.92
2023-03-25T17:08:59.050Z,35.96
2023-03-25T17:11:31.559Z,36.42
2023-03-25T17:14:08.728Z,36.64
2023-03-25T17:16:38.340Z,36.61
2023-03-25T17:19:08.157Z,36.62
2023-03-25T17:21:38.743Z,36.55
2023-03-25T17:24:24.095Z,36.78
2023-03-25T17:27:07.494Z,36.74
2023-03-25T17:29:49.809Z,36.86
2023-03-25T17:32:18.499Z,37.12
2023-03-25T17:34:59.129Z,37.24
2023-03-25T17:37:27.710Z,37.78
2023-03-25T17:39:57.384Z,38.20
2023-03-25T17:42:26.372Z,38.55
2023-03-25T17:44:54.493Z,38.86
2023-03-25T17:47:24.150Z,38.76
2023-03-25T17:49:52.994Z,38.74
2023-03-25T17:52:21.175Z,38.86
2023-03-25T17:54:49.755Z,39.15
2023-03-25T17:57:18.459Z,39.17
2023-03-25T17:59:47.334Z,39.20
2023-03-25T18:02:16.647Z,39.11
2023-03-25T18:04:45.022Z,38.92
2023-03-25T18:07:13.430Z,39.01
2023-03-25T18:09:43.165Z,39.27
2023-03-25T18:12:14.836Z,39.53
2023-03-25T18:14:45.128Z,39.42
2023-03-25T18:17:13.378Z,39.47
2023-03-25T18:19:47.722Z,39.69
2023-03-25T18:22:20.176Z,39.57
2023-03-25T18:24:48.947Z,39.70
2023-03-25T18:27:27.785Z,39.98
2023-03-25T18:30:13.261Z,40.20
2023-03-25T18:32:41.656Z,40.25
2023-03-25T18:35:10.565Z,40.58
2023-03-25T18:37:39.443Z,41.02
2023-03-25T18:40:36.180Z,41.16
2023-03-25T18:43:04.592Z,41.06
2023-03-25T18:45:33.248Z,41.08
2023-03-25T18:48:02.765Z,40.96
2023-03-25T18:50:38.767Z,40.68
2023-03-25T18:53:09.953Z,40.64
2023-03-25T18:55:38.461Z,40.75
2023-03-25T18:58:08.015Z,40.85
2023-03-25T19:00:39.896Z,40.76
2023-03-25T19:03:08.497Z,40.68
2023-03-25T19:05:36.987Z,40.87
2023-03-25T19:08:07.405Z,40.66
2023-03-25T19:10:36.193Z,40.69
2023-03-25T19:13:08.688Z,40.48
2023-03-25T19:15:38.632Z,40.33
2023-03-25T19:24:44.178Z,40.82
2023-03-25T19:27:12.374Z,40.59
2023-03-25T19:29:39.822Z,40.41
2023-03-25T19:32:06.998Z,40.65
2023-03-25T19:34:45.887Z,40.61
2023-03-25T19:37:13.447Z,40.44
2023-03-25T19:39:42.140Z,40.85
2023-03-25T19:42:09.360Z,40.86
2023-03-25T19:44:36.646Z,40.87
2023-03-25T19:47:09.222Z,41.20
2023-03-25T19:49:40.124Z,41.44
2023-03-25T19:52:07.424Z,41.46
2023-03-25T19:54:35.394Z,41.73
2023-03-25T19:57:02.376Z,41.51
2023-03-25T19:59:36.594Z,41.55
2023-03-25T20:02:03.804Z,41.44
2023-03-25T20:04:31.370Z,41.73
2023-03-25T20:07:03.846Z,41.93
2023-03-25T20:09:32.024Z,41.76
2023-03-25T20:11:58.862Z,41.81
2023-03-25T20:14:29.699Z,41.86
2023-03-25T20:16:57.511Z,41.90
2023-03-25T20:19:24.930Z,41.91
2023-03-25T20:21:52.350Z,42.12
2023-03-25T20:24:19.555Z,42.77
2023-03-25T20:26:46.500Z,43.29
2023-03-25T20:29:17.125Z,43.22
2023-03-25T20:31:45.319Z,43.54
2023-03-25T20:34:13.166Z,43.39
2023-03-25T20:36:41.248Z,43.10
2023-03-25T20:39:08.085Z,43.18
2023-03-25T20:41:37.392Z,43.48
2023-03-25T20:44:06.389Z,43.76
2023-03-25T20:46:34.615Z,44.02
2023-03-25T20:49:02.837Z,44.54
2023-03-25T20:51:31.935Z,44.95
2023-03-25T20:53:59.132Z,45.00
2023-03-25T20:56:26.034Z,45.25
2023-03-25T20:58:55.034Z,45.37
2023-03-25T21:01:22.962Z,45.27
2023-03-25T21:03:51.370Z,45.24
2023-03-25T21:06:23.727Z,45.14
2023-03-25T21:08:54.282Z,45.28
2023-03-25T21:11:21.433Z,45.19
2023-03-25T21:13:51.043Z,45.47
2023-03-25T21:16:17.959Z,45.51
2023-03-25T21:18:45.544Z,45.70
2023-03-25T21:21:12.192Z,45.93
2023-03-25T21:23:42.489Z,45.93
2023-03-25T21:26:10.240Z,45.81
2023-03-25T21:28:37.733Z,45.89
2023-03-25T21:31:07.195Z,45.76
2023-03-25T21:33:37.684Z,45.87
2023-03-25T21:36:06.607Z,45.60
2023-03-25T21:38:36.891Z,45.43
2023-03-25T21:41:05.209Z,45.38
2023-03-25T21:43:33.242Z,45.32
2023-03-25T21:46:05.499Z,45.36
2023-03-25T21:48:33.303Z,45.13
2023-03-25T21:51:01.042Z,45.01
2023-03-25T21:53:31.640Z,45.02
2023-03-25T21:56:03.754Z,44.78
2023-03-25T21:58:31.927Z,44.64
2023-03-25T22:00:59.923Z,44.64
2023-03-25T22:03:29.597Z,44.63
2023-03-25T22:06:02.031Z,44.61
2023-03-25T22:08:29.016Z,44.72
2023-03-25T22:11:05.832Z,44.71
2023-03-25T22:13:32.859Z,44.66
2023-03-25T22:15:59.906Z,44.81
2023-03-25T22:18:28.567Z,44.68
2023-03-25T22:21:15.116Z,44.85
2023-03-25T22:23:45.048Z,44.66
2023-03-25T22:26:12.748Z,44.46
2023-03-25T22:28:42.036Z,44.34
2023-03-25T22:31:10.076Z,44.26
2023-03-25T22:33:37.727Z,43.93
2023-03-25T22:36:11.214Z,44.03
2023-03-25T22:38:44.093Z,43.78
2023-03-25T22:41:13.389Z,43.86
2023-03-25T22:43:41.224Z,43.93
2023-03-25T22:46:08.566Z,43.86
2023-03-25T22:48:40.490Z,43.98
2023-03-25T22:51:11.719Z,43.75
2023-03-25T22:53:38.999Z,43.90
2023-03-25T22:56:07.054Z,43.93
2023-03-25T22:58:34.323Z,43.85
2023-03-25T23:01:05.419Z,44.07
2023-03-25T23:03:32.857Z,43.92
2023-03-25T23:06:02.447Z,43.66
2023-03-25T23:08:34.583Z,43.84
2023-03-25T23:11:07.079Z,43.85
2023-03-25T23:13:34.217Z,43.72
2023-03-25T23:16:04.048Z,44.10
2023-03-25T23:18:33.048Z,44.08
2023-03-25T23:21:00.900Z,43.95
2023-03-25T23:23:28.456Z,44.03
2023-03-25T23:26:05.535Z,43.92
2023-03-25T23:28:36.687Z,43.98
2023-03-25T23:31:09.039Z,44.07
2023-03-25T23:33:36.011Z,44.05
2023-03-25T23:36:04.837Z,44.11
2023-03-25T23:38:32.062Z,44.09
2023-03-25T23:41:08.120Z,44.02
2023-03-25T23:43:35.880Z,44.03
2023-03-25T23:46:04.460Z,44.04
2023-03-25T23:48:33.156Z,44.09
2023-03-25T23:50:59.838Z,43.90
2023-03-25T23:53:27.609Z,44.23
2023-03-25T23:55:55.339Z,44.14
2023-03-25T23:58:25.405Z,44.02
